sensor_id;sensor_type;location;lat;lon;timestamp;P1;durP1;ratioP1;P2;durP2;ratioP2
45322;SDS011;31382;50.200;8.674;2024-03-02T00:02:30;10.65;;;5.90;;
45322;SDS011;31382;50.200;8.674;2024-03-02T00:07:31;10.98;;;5.18;;
45322;SDS011;31382;50.200;8.674;2024-03-02T00:12:33;11.05;;;5.80;;
45322;SDS011;31382;50.200;8.674;2024-03-02T00:17:34;9.15;;;5.35;;
45322;SDS011;31382;50.200;8.674;2024-03-02T00:22:36;8.13;;;5.95;;
45322;SDS011;31382;50.200;8.674;2024-03-02T00:27:38;11.93;;;6.50;;
45322;SDS011;31382;50.200;8.674;2024-03-02T00:32:40;12.98;;;6.40;;
45322;SDS011;31382;50.200;8.674;2024-03-02T00:37:44;11.48;;;5.93;;
45322;SDS011;31382;50.200;8.674;2024-03-02T00:42:45;10.15;;;5.72;;
45322;SDS011;31382;50.200;8.674;2024-03-02T00:47:47;9.38;;;5.75;;
45322;SDS011;31382;50.200;8.674;2024-03-02T00:52:48;8.98;;;5.20;;
45322;SDS011;31382;50.200;8.674;2024-03-02T00:57:50;9.02;;;4.53;;
45322;SDS011;31382;50.200;8.674;2024-03-02T01:02:51;11.90;;;6.88;;
45322;SDS011;31382;50.200;8.674;2024-03-02T01:07:53;8.77;;;5.15;;
45322;SDS011;31382;50.200;8.674;2024-03-02T01:12:55;16.17;;;5.35;;
45322;SDS011;31382;50.200;8.674;2024-03-02T01:17:56;8.55;;;4.78;;
45322;SDS011;31382;50.200;8.674;2024-03-02T01:22:58;10.23;;;6.20;;
45322;SDS011;31382;50.200;8.674;2024-03-02T01:28:00;10.65;;;5.03;;
45322;SDS011;31382;50.200;8.674;2024-03-02T01:33:02;13.02;;;5.82;;
45322;SDS011;31382;50.200;8.674;2024-03-02T01:38:04;10.80;;;5.78;;
45322;SDS011;31382;50.200;8.674;2024-03-02T01:43:07;10.45;;;5.32;;
45322;SDS011;31382;50.200;8.674;2024-03-02T01:48:08;10.82;;;5.45;;
45322;SDS011;31382;50.200;8.674;2024-03-02T01:53:10;13.38;;;5.63;;
45322;SDS011;31382;50.200;8.674;2024-03-02T01:58:12;10.85;;;5.78;;
45322;SDS011;31382;50.200;8.674;2024-03-02T02:03:13;11.45;;;5.90;;
45322;SDS011;31382;50.200;8.674;2024-03-02T02:08:15;9.70;;;4.85;;
45322;SDS011;31382;50.200;8.674;2024-03-02T02:13:16;11.57;;;5.05;;
45322;SDS011;31382;50.200;8.674;2024-03-02T02:18:17;9.60;;;5.22;;
45322;SDS011;31382;50.200;8.674;2024-03-02T02:23:19;8.50;;;4.60;;
45322;SDS011;31382;50.200;8.674;2024-03-02T02:28:21;8.73;;;4.43;;
45322;SDS011;31382;50.200;8.674;2024-03-02T02:33:22;8.18;;;4.68;;
45322;SDS011;31382;50.200;8.674;2024-03-02T02:38:24;9.48;;;4.93;;
45322;SDS011;31382;50.200;8.674;2024-03-02T02:43:25;10.25;;;4.93;;
45322;SDS011;31382;50.200;8.674;2024-03-02T02:48:27;10.50;;;4.88;;
45322;SDS011;31382;50.200;8.674;2024-03-02T02:53:28;6.63;;;3.83;;
45322;SDS011;31382;50.200;8.674;2024-03-02T02:58:29;12.20;;;5.22;;
45322;SDS011;31382;50.200;8.674;2024-03-02T03:03:31;10.95;;;4.95;;
45322;SDS011;31382;50.200;8.674;2024-03-02T03:08:32;10.95;;;4.30;;
45322;SDS011;31382;50.200;8.674;2024-03-02T03:13:34;8.50;;;4.00;;
45322;SDS011;31382;50.200;8.674;2024-03-02T03:18:36;12.60;;;5.30;;
45322;SDS011;31382;50.200;8.674;2024-03-02T03:23:37;8.52;;;3.85;;
45322;SDS011;31382;50.200;8.674;2024-03-02T03:28:39;14.40;;;5.20;;
45322;SDS011;31382;50.200;8.674;2024-03-02T03:33:40;9.02;;;4.80;;
45322;SDS011;31382;50.200;8.674;2024-03-02T03:38:42;8.95;;;4.60;;
45322;SDS011;31382;50.200;8.674;2024-03-02T03:43:43;6.10;;;4.13;;
45322;SDS011;31382;50.200;8.674;2024-03-02T03:48:44;9.77;;;4.75;;
45322;SDS011;31382;50.200;8.674;2024-03-02T03:53:46;9.32;;;5.18;;
45322;SDS011;31382;50.200;8.674;2024-03-02T03:58:47;8.85;;;4.78;;
45322;SDS011;31382;50.200;8.674;2024-03-02T04:03:49;12.02;;;6.13;;
45322;SDS011;31382;50.200;8.674;2024-03-02T04:08:50;15.05;;;5.35;;
45322;SDS011;31382;50.200;8.674;2024-03-02T04:13:51;11.90;;;5.15;;
45322;SDS011;31382;50.200;8.674;2024-03-02T04:18:56;11.07;;;5.03;;
45322;SDS011;31382;50.200;8.674;2024-03-02T04:23:58;15.35;;;5.88;;
45322;SDS011;31382;50.200;8.674;2024-03-02T04:29:00;12.25;;;6.10;;
45322;SDS011;31382;50.200;8.674;2024-03-02T04:34:03;13.80;;;6.53;;
45322;SDS011;31382;50.200;8.674;2024-03-02T04:39:04;14.13;;;6.65;;
45322;SDS011;31382;50.200;8.674;2024-03-02T04:44:06;15.13;;;6.88;;
45322;SDS011;31382;50.200;8.674;2024-03-02T04:49:09;13.93;;;7.90;;
45322;SDS011;31382;50.200;8.674;2024-03-02T04:54:11;16.48;;;6.93;;
45322;SDS011;31382;50.200;8.674;2024-03-02T04:59:12;20.45;;;8.60;;
45322;SDS011;31382;50.200;8.674;2024-03-02T05:04:14;16.48;;;8.13;;
45322;SDS011;31382;50.200;8.674;2024-03-02T05:09:15;16.73;;;8.38;;
45322;SDS011;31382;50.200;8.674;2024-03-02T05:14:16;19.88;;;9.93;;
45322;SDS011;31382;50.200;8.674;2024-03-02T05:19:18;18.50;;;9.30;;
45322;SDS011;31382;50.200;8.674;2024-03-02T05:24:19;20.63;;;9.20;;
45322;SDS011;31382;50.200;8.674;2024-03-02T05:29:21;17.98;;;9.23;;
45322;SDS011;31382;50.200;8.674;2024-03-02T05:34:22;20.58;;;9.18;;
45322;SDS011;31382;50.200;8.674;2024-03-02T05:39:24;24.27;;;8.10;;
45322;SDS011;31382;50.200;8.674;2024-03-02T05:44:25;21.25;;;9.43;;
45322;SDS011;31382;50.200;8.674;2024-03-02T05:49:27;21.60;;;9.27;;
45322;SDS011;31382;50.200;8.674;2024-03-02T05:54:28;22.83;;;9.32;;
45322;SDS011;31382;50.200;8.674;2024-03-02T05:59:29;22.70;;;10.23;;
45322;SDS011;31382;50.200;8.674;2024-03-02T06:04:31;34.10;;;10.85;;
45322;SDS011;31382;50.200;8.674;2024-03-02T06:09:32;26.85;;;9.98;;
45322;SDS011;31382;50.200;8.674;2024-03-02T06:14:34;27.15;;;10.55;;
45322;SDS011;31382;50.200;8.674;2024-03-02T06:19:35;23.58;;;10.57;;
45322;SDS011;31382;50.200;8.674;2024-03-02T06:24:37;24.73;;;10.57;;
45322;SDS011;31382;50.200;8.674;2024-03-02T06:29:39;27.33;;;11.57;;
45322;SDS011;31382;50.200;8.674;2024-03-02T06:34:40;23.95;;;10.70;;
45322;SDS011;31382;50.200;8.674;2024-03-02T06:39:41;22.38;;;11.40;;
45322;SDS011;31382;50.200;8.674;2024-03-02T06:44:43;20.77;;;10.00;;
45322;SDS011;31382;50.200;8.674;2024-03-02T06:49:44;26.45;;;10.93;;
45322;SDS011;31382;50.200;8.674;2024-03-02T06:54:46;24.90;;;11.70;;
45322;SDS011;31382;50.200;8.674;2024-03-02T06:59:47;25.98;;;12.75;;
45322;SDS011;31382;50.200;8.674;2024-03-02T07:04:52;26.40;;;11.52;;
45322;SDS011;31382;50.200;8.674;2024-03-02T07:09:54;23.27;;;10.63;;
45322;SDS011;31382;50.200;8.674;2024-03-02T07:14:55;22.75;;;11.05;;
45322;SDS011;31382;50.200;8.674;2024-03-02T07:20:06;23.42;;;11.15;;
45322;SDS011;31382;50.200;8.674;2024-03-02T07:25:08;23.23;;;10.75;;
45322;SDS011;31382;50.200;8.674;2024-03-02T07:30:29;29.52;;;12.98;;
45322;SDS011;31382;50.200;8.674;2024-03-02T07:35:34;29.48;;;13.65;;
45322;SDS011;31382;50.200;8.674;2024-03-02T07:40:35;28.63;;;13.95;;
45322;SDS011;31382;50.200;8.674;2024-03-02T07:45:37;33.67;;;14.48;;
45322;SDS011;31382;50.200;8.674;2024-03-02T07:50:38;30.73;;;13.55;;
45322;SDS011;31382;50.200;8.674;2024-03-02T07:55:40;35.40;;;14.50;;
45322;SDS011;31382;50.200;8.674;2024-03-02T08:00:41;40.03;;;16.05;;
45322;SDS011;31382;50.200;8.674;2024-03-02T08:05:44;37.50;;;16.42;;
45322;SDS011;31382;50.200;8.674;2024-03-02T08:10:46;32.38;;;14.93;;
45322;SDS011;31382;50.200;8.674;2024-03-02T08:15:47;28.70;;;13.77;;
45322;SDS011;31382;50.200;8.674;2024-03-02T08:20:49;29.65;;;14.70;;
45322;SDS011;31382;50.200;8.674;2024-03-02T08:25:50;24.95;;;12.48;;
45322;SDS011;31382;50.200;8.674;2024-03-02T08:30:52;26.83;;;12.30;;
45322;SDS011;31382;50.200;8.674;2024-03-02T08:35:53;23.98;;;12.82;;
45322;SDS011;31382;50.200;8.674;2024-03-02T08:40:54;22.05;;;10.90;;
45322;SDS011;31382;50.200;8.674;2024-03-02T08:45:56;23.42;;;10.68;;
45322;SDS011;31382;50.200;8.674;2024-03-02T08:50:57;18.17;;;10.15;;
45322;SDS011;31382;50.200;8.674;2024-03-02T08:55:59;19.27;;;10.40;;
45322;SDS011;31382;50.200;8.674;2024-03-02T09:01:03;20.13;;;9.05;;
45322;SDS011;31382;50.200;8.674;2024-03-02T09:06:05;16.27;;;8.90;;
45322;SDS011;31382;50.200;8.674;2024-03-02T09:11:06;14.88;;;8.85;;
45322;SDS011;31382;50.200;8.674;2024-03-02T09:16:08;17.25;;;9.02;;
45322;SDS011;31382;50.200;8.674;2024-03-02T09:21:12;17.90;;;8.85;;
45322;SDS011;31382;50.200;8.674;2024-03-02T09:26:13;13.45;;;8.23;;
45322;SDS011;31382;50.200;8.674;2024-03-02T09:31:15;17.90;;;9.20;;
45322;SDS011;31382;50.200;8.674;2024-03-02T09:36:17;17.60;;;9.38;;
45322;SDS011;31382;50.200;8.674;2024-03-02T09:41:19;15.60;;;9.27;;
45322;SDS011;31382;50.200;8.674;2024-03-02T09:46:21;16.98;;;8.32;;
45322;SDS011;31382;50.200;8.674;2024-03-02T09:51:23;15.55;;;9.10;;
45322;SDS011;31382;50.200;8.674;2024-03-02T09:56:24;13.35;;;8.43;;
45322;SDS011;31382;50.200;8.674;2024-03-02T10:01:26;14.45;;;8.48;;
45322;SDS011;31382;50.200;8.674;2024-03-02T10:06:28;13.80;;;8.13;;
45322;SDS011;31382;50.200;8.674;2024-03-02T10:11:33;12.27;;;7.53;;
45322;SDS011;31382;50.200;8.674;2024-03-02T10:16:38;14.43;;;8.35;;
45322;SDS011;31382;50.200;8.674;2024-03-02T10:21:44;11.25;;;7.65;;
45322;SDS011;31382;50.200;8.674;2024-03-02T10:26:47;13.25;;;7.00;;
45322;SDS011;31382;50.200;8.674;2024-03-02T10:31:49;10.15;;;6.93;;
45322;SDS011;31382;50.200;8.674;2024-03-02T10:36:50;11.18;;;6.63;;
45322;SDS011;31382;50.200;8.674;2024-03-02T10:41:52;15.25;;;7.40;;
45322;SDS011;31382;50.200;8.674;2024-03-02T10:46:55;11.73;;;6.72;;
45322;SDS011;31382;50.200;8.674;2024-03-02T10:51:57;13.35;;;6.88;;
45322;SDS011;31382;50.200;8.674;2024-03-02T10:57:02;15.55;;;7.55;;
45322;SDS011;31382;50.200;8.674;2024-03-02T11:02:06;10.98;;;6.40;;
45322;SDS011;31382;50.200;8.674;2024-03-02T11:07:09;12.75;;;6.43;;
45322;SDS011;31382;50.200;8.674;2024-03-02T11:12:13;9.93;;;6.10;;
45322;SDS011;31382;50.200;8.674;2024-03-02T11:17:21;9.15;;;5.43;;
45322;SDS011;31382;50.200;8.674;2024-03-02T11:22:23;12.15;;;6.28;;
45322;SDS011;31382;50.200;8.674;2024-03-02T11:33:04;9.90;;;5.95;;
45322;SDS011;31382;50.200;8.674;2024-03-02T11:38:11;8.20;;;5.57;;
45322;SDS011;31382;50.200;8.674;2024-03-02T11:43:12;9.52;;;5.90;;
45322;SDS011;31382;50.200;8.674;2024-03-02T11:48:14;10.32;;;5.40;;
45322;SDS011;31382;50.200;8.674;2024-03-02T11:53:17;11.43;;;6.15;;
45322;SDS011;31382;50.200;8.674;2024-03-02T11:58:19;8.18;;;4.68;;
45322;SDS011;31382;50.200;8.674;2024-03-02T12:03:22;9.45;;;5.15;;
45322;SDS011;31382;50.200;8.674;2024-03-02T12:08:26;10.50;;;5.20;;
45322;SDS011;31382;50.200;8.674;2024-03-02T12:13:27;7.80;;;5.07;;
45322;SDS011;31382;50.200;8.674;2024-03-02T12:18:29;8.60;;;5.40;;
45322;SDS011;31382;50.200;8.674;2024-03-02T12:23:30;6.93;;;4.50;;
45322;SDS011;31382;50.200;8.674;2024-03-02T12:28:33;7.32;;;5.05;;
45322;SDS011;31382;50.200;8.674;2024-03-02T12:33:35;7.82;;;4.13;;
45322;SDS011;31382;50.200;8.674;2024-03-02T12:38:36;4.82;;;3.88;;
45322;SDS011;31382;50.200;8.674;2024-03-02T12:43:38;7.80;;;4.10;;
45322;SDS011;31382;50.200;8.674;2024-03-02T12:48:39;5.38;;;4.00;;
45322;SDS011;31382;50.200;8.674;2024-03-02T12:53:42;5.72;;;3.75;;
45322;SDS011;31382;50.200;8.674;2024-03-02T12:58:43;5.18;;;3.92;;
45322;SDS011;31382;50.200;8.674;2024-03-02T13:03:45;5.50;;;3.72;;
45322;SDS011;31382;50.200;8.674;2024-03-02T13:08:50;4.95;;;4.22;;
45322;SDS011;31382;50.200;8.674;2024-03-02T13:13:51;5.47;;;4.65;;
45322;SDS011;31382;50.200;8.674;2024-03-02T13:18:53;4.68;;;3.50;;
45322;SDS011;31382;50.200;8.674;2024-03-02T13:23:54;4.38;;;3.25;;
45322;SDS011;31382;50.200;8.674;2024-03-02T13:28:56;5.13;;;3.38;;
45322;SDS011;31382;50.200;8.674;2024-03-02T13:33:57;5.78;;;4.00;;
45322;SDS011;31382;50.200;8.674;2024-03-02T13:38:58;4.22;;;2.45;;
45322;SDS011;31382;50.200;8.674;2024-03-02T13:44:00;2.55;;;1.92;;
45322;SDS011;31382;50.200;8.674;2024-03-02T13:49:02;1.70;;;1.40;;
45322;SDS011;31382;50.200;8.674;2024-03-02T13:54:04;3.50;;;1.88;;
45322;SDS011;31382;50.200;8.674;2024-03-02T13:59:06;1.90;;;1.48;;
45322;SDS011;31382;50.200;8.674;2024-03-02T14:04:08;1.52;;;1.40;;
45322;SDS011;31382;50.200;8.674;2024-03-02T14:09:10;3.45;;;2.40;;
45322;SDS011;31382;50.200;8.674;2024-03-02T14:14:11;2.88;;;1.70;;
45322;SDS011;31382;50.200;8.674;2024-03-02T14:19:13;5.05;;;0.90;;
45322;SDS011;31382;50.200;8.674;2024-03-02T14:24:14;1.30;;;0.90;;
45322;SDS011;31382;50.200;8.674;2024-03-02T14:29:15;4.90;;;0.80;;
45322;SDS011;31382;50.200;8.674;2024-03-02T14:34:17;2.25;;;1.27;;
45322;SDS011;31382;50.200;8.674;2024-03-02T14:39:19;2.53;;;1.80;;
45322;SDS011;31382;50.200;8.674;2024-03-02T14:44:21;2.20;;;1.30;;
45322;SDS011;31382;50.200;8.674;2024-03-02T14:49:22;2.75;;;0.95;;
45322;SDS011;31382;50.200;8.674;2024-03-02T14:54:24;1.02;;;0.75;;
45322;SDS011;31382;50.200;8.674;2024-03-02T14:59:25;2.85;;;0.90;;
45322;SDS011;31382;50.200;8.674;2024-03-02T15:04:26;3.35;;;1.30;;
45322;SDS011;31382;50.200;8.674;2024-03-02T15:09:28;1.45;;;1.08;;
45322;SDS011;31382;50.200;8.674;2024-03-02T15:14:29;2.35;;;1.35;;
45322;SDS011;31382;50.200;8.674;2024-03-02T15:19:31;2.72;;;1.15;;
45322;SDS011;31382;50.200;8.674;2024-03-02T15:24:33;2.70;;;1.42;;
45322;SDS011;31382;50.200;8.674;2024-03-02T15:29:35;3.25;;;1.20;;
45322;SDS011;31382;50.200;8.674;2024-03-02T15:34:37;5.20;;;1.30;;
45322;SDS011;31382;50.200;8.674;2024-03-02T15:39:38;20.98;;;9.75;;
45322;SDS011;31382;50.200;8.674;2024-03-02T15:44:40;10.48;;;6.18;;
45322;SDS011;31382;50.200;8.674;2024-03-02T15:49:45;4.97;;;2.65;;
45322;SDS011;31382;50.200;8.674;2024-03-02T15:54:49;3.42;;;1.70;;
45322;SDS011;31382;50.200;8.674;2024-03-02T15:59:51;4.80;;;1.30;;
45322;SDS011;31382;50.200;8.674;2024-03-02T16:04:52;2.53;;;0.90;;
45322;SDS011;31382;50.200;8.674;2024-03-02T16:09:54;1.50;;;1.00;;
45322;SDS011;31382;50.200;8.674;2024-03-02T16:14:55;2.65;;;1.30;;
45322;SDS011;31382;50.200;8.674;2024-03-02T16:19:57;3.05;;;1.10;;
45322;SDS011;31382;50.200;8.674;2024-03-02T16:24:59;3.28;;;0.80;;
45322;SDS011;31382;50.200;8.674;2024-03-02T16:30:01;3.67;;;1.80;;
45322;SDS011;31382;50.200;8.674;2024-03-02T16:35:03;9.40;;;3.28;;
45322;SDS011;31382;50.200;8.674;2024-03-02T16:40:07;9.77;;;5.28;;
45322;SDS011;31382;50.200;8.674;2024-03-02T16:45:09;7.53;;;4.05;;
45322;SDS011;31382;50.200;8.674;2024-03-02T16:50:10;6.93;;;2.22;;
45322;SDS011;31382;50.200;8.674;2024-03-02T16:55:13;3.35;;;1.75;;
45322;SDS011;31382;50.200;8.674;2024-03-02T17:00:16;5.45;;;1.75;;
45322;SDS011;31382;50.200;8.674;2024-03-02T17:05:17;3.85;;;1.88;;
45322;SDS011;31382;50.200;8.674;2024-03-02T17:10:22;3.75;;;1.98;;
45322;SDS011;31382;50.200;8.674;2024-03-02T17:15:23;3.22;;;1.60;;
45322;SDS011;31382;50.200;8.674;2024-03-02T17:20:25;2.75;;;1.50;;
45322;SDS011;31382;50.200;8.674;2024-03-02T17:25:27;4.57;;;2.05;;
45322;SDS011;31382;50.200;8.674;2024-03-02T17:30:28;2.88;;;1.80;;
45322;SDS011;31382;50.200;8.674;2024-03-02T17:35:29;5.95;;;2.78;;
45322;SDS011;31382;50.200;8.674;2024-03-02T17:40:32;4.95;;;2.58;;
45322;SDS011;31382;50.200;8.674;2024-03-02T17:45:34;7.75;;;3.15;;
45322;SDS011;31382;50.200;8.674;2024-03-02T17:50:35;12.00;;;4.85;;
45322;SDS011;31382;50.200;8.674;2024-03-02T17:55:37;8.70;;;4.00;;
45322;SDS011;31382;50.200;8.674;2024-03-02T18:00:39;6.50;;;3.63;;
45322;SDS011;31382;50.200;8.674;2024-03-02T18:05:42;7.70;;;3.22;;
45322;SDS011;31382;50.200;8.674;2024-03-02T18:10:43;5.57;;;3.17;;
45322;SDS011;31382;50.200;8.674;2024-03-02T18:15:45;7.15;;;3.17;;
45322;SDS011;31382;50.200;8.674;2024-03-02T18:20:50;5.82;;;3.38;;
45322;SDS011;31382;50.200;8.674;2024-03-02T18:25:52;6.95;;;3.20;;
45322;SDS011;31382;50.200;8.674;2024-03-02T18:30:53;5.00;;;3.03;;
45322;SDS011;31382;50.200;8.674;2024-03-02T18:35:54;7.35;;;2.88;;
45322;SDS011;31382;50.200;8.674;2024-03-02T18:40:56;5.25;;;2.40;;
45322;SDS011;31382;50.200;8.674;2024-03-02T18:45:58;5.13;;;3.10;;
45322;SDS011;31382;50.200;8.674;2024-03-02T18:51:10;6.30;;;2.50;;
45322;SDS011;31382;50.200;8.674;2024-03-02T18:56:11;4.00;;;2.60;;
45322;SDS011;31382;50.200;8.674;2024-03-02T19:01:14;4.82;;;2.85;;
45322;SDS011;31382;50.200;8.674;2024-03-02T19:06:16;5.35;;;3.35;;
45322;SDS011;31382;50.200;8.674;2024-03-02T19:11:18;4.97;;;2.22;;
45322;SDS011;31382;50.200;8.674;2024-03-02T19:16:23;10.50;;;4.93;;
45322;SDS011;31382;50.200;8.674;2024-03-02T19:21:24;6.78;;;3.55;;
45322;SDS011;31382;50.200;8.674;2024-03-02T19:26:26;4.95;;;3.25;;
45322;SDS011;31382;50.200;8.674;2024-03-02T19:31:27;10.20;;;5.57;;
45322;SDS011;31382;50.200;8.674;2024-03-02T19:36:28;4.78;;;3.10;;
45322;SDS011;31382;50.200;8.674;2024-03-02T19:41:30;4.72;;;3.05;;
45322;SDS011;31382;50.200;8.674;2024-03-02T19:46:31;7.28;;;4.40;;
45322;SDS011;31382;50.200;8.674;2024-03-02T19:51:33;8.85;;;4.68;;
45322;SDS011;31382;50.200;8.674;2024-03-02T19:56:35;5.82;;;3.40;;
45322;SDS011;31382;50.200;8.674;2024-03-02T20:01:37;5.63;;;3.05;;
45322;SDS011;31382;50.200;8.674;2024-03-02T20:06:38;9.98;;;4.53;;
45322;SDS011;31382;50.200;8.674;2024-03-02T20:11:40;11.40;;;4.63;;
45322;SDS011;31382;50.200;8.674;2024-03-02T20:16:43;10.48;;;4.40;;
45322;SDS011;31382;50.200;8.674;2024-03-02T20:21:45;10.25;;;4.72;;
45322;SDS011;31382;50.200;8.674;2024-03-02T20:26:47;7.10;;;4.28;;
45322;SDS011;31382;50.200;8.674;2024-03-02T20:31:48;9.52;;;5.50;;
45322;SDS011;31382;50.200;8.674;2024-03-02T20:36:50;10.70;;;4.68;;
45322;SDS011;31382;50.200;8.674;2024-03-02T20:41:51;16.00;;;7.45;;
45322;SDS011;31382;50.200;8.674;2024-03-02T20:46:53;10.82;;;4.95;;
45322;SDS011;31382;50.200;8.674;2024-03-02T20:51:54;8.77;;;4.90;;
45322;SDS011;31382;50.200;8.674;2024-03-02T20:56:56;10.95;;;5.20;;
45322;SDS011;31382;50.200;8.674;2024-03-02T21:01:59;11.15;;;6.75;;
45322;SDS011;31382;50.200;8.674;2024-03-02T21:07:00;11.20;;;6.53;;
45322;SDS011;31382;50.200;8.674;2024-03-02T21:12:04;12.90;;;7.03;;
45322;SDS011;31382;50.200;8.674;2024-03-02T21:17:07;11.05;;;6.05;;
45322;SDS011;31382;50.200;8.674;2024-03-02T21:22:08;12.70;;;6.65;;
45322;SDS011;31382;50.200;8.674;2024-03-02T21:27:10;15.32;;;6.80;;
45322;SDS011;31382;50.200;8.674;2024-03-02T21:32:12;14.27;;;7.05;;
45322;SDS011;31382;50.200;8.674;2024-03-02T21:37:14;12.65;;;6.05;;
45322;SDS011;31382;50.200;8.674;2024-03-02T21:42:15;12.07;;;6.32;;
45322;SDS011;31382;50.200;8.674;2024-03-02T21:47:17;13.82;;;6.20;;
45322;SDS011;31382;50.200;8.674;2024-03-02T21:52:20;18.88;;;9.10;;
45322;SDS011;31382;50.200;8.674;2024-03-02T21:57:21;18.95;;;11.00;;
45322;SDS011;31382;50.200;8.674;2024-03-02T22:02:23;19.13;;;8.88;;
45322;SDS011;31382;50.200;8.674;2024-03-02T22:07:25;14.63;;;7.40;;
45322;SDS011;31382;50.200;8.674;2024-03-02T22:12:26;12.77;;;6.78;;
45322;SDS011;31382;50.200;8.674;2024-03-02T22:17:27;15.05;;;7.32;;
45322;SDS011;31382;50.200;8.674;2024-03-02T22:22:30;33.92;;;12.18;;
45322;SDS011;31382;50.200;8.674;2024-03-02T22:27:31;22.52;;;10.40;;
45322;SDS011;31382;50.200;8.674;2024-03-02T22:32:34;19.08;;;9.23;;
45322;SDS011;31382;50.200;8.674;2024-03-02T22:37:35;16.65;;;7.75;;
45322;SDS011;31382;50.200;8.674;2024-03-02T22:42:37;14.52;;;7.57;;
45322;SDS011;31382;50.200;8.674;2024-03-02T22:47:38;18.75;;;8.65;;
45322;SDS011;31382;50.200;8.674;2024-03-02T22:52:40;14.40;;;8.20;;
45322;SDS011;31382;50.200;8.674;2024-03-02T22:57:41;15.15;;;8.10;;
45322;SDS011;31382;50.200;8.674;2024-03-02T23:02:43;14.70;;;7.80;;
45322;SDS011;31382;50.200;8.674;2024-03-02T23:07:44;15.95;;;8.35;;
45322;SDS011;31382;50.200;8.674;2024-03-02T23:12:46;14.70;;;7.63;;
45322;SDS011;31382;50.200;8.674;2024-03-02T23:17:47;17.63;;;8.80;;
45322;SDS011;31382;50.200;8.674;2024-03-02T23:22:49;15.90;;;7.90;;
45322;SDS011;31382;50.200;8.674;2024-03-02T23:27:50;17.00;;;8.35;;
45322;SDS011;31382;50.200;8.674;2024-03-02T23:32:51;13.95;;;6.65;;
45322;SDS011;31382;50.200;8.674;2024-03-02T23:37:53;20.38;;;7.85;;
45322;SDS011;31382;50.200;8.674;2024-03-02T23:42:54;15.52;;;8.10;;
45322;SDS011;31382;50.200;8.674;2024-03-02T23:47:56;12.75;;;6.72;;
45322;SDS011;31382;50.200;8.674;2024-03-02T23:52:58;13.15;;;7.15;;
45322;SDS011;31382;50.200;8.674;2024-03-02T23:57:59;17.30;;;7.15;;
